sensor_id;sensor_type;location;lat;lon;timestamp;pressure;altitude;pressure_sealevel;temperature;humidity
70458;BME280;57919;56.194;95.716;2023-04-25T00:05:27;97856.16;;;5.65;35.88
70458;BME280;57919;56.194;95.716;2023-04-25T00:15:29;97849.72;;;5.87;35.82
70458;BME280;57919;56.194;95.716;2023-04-25T00:25:34;97842.25;;;6.19;36.10
70458;BME280;57919;56.194;95.716;2023-04-25T00:35:36;97826.69;;;6.42;35.94
70458;BME280;57919;56.194;95.716;2023-04-25T00:45:39;97833.72;;;6.62;36.08
70458;BME280;57919;56.194;95.716;2023-04-25T00:55:41;97822.94;;;6.82;36.93
70458;BME280;57919;56.194;95.716;2023-04-25T01:05:43;97822.97;;;7.64;36.87
70458;BME280;57919;56.194;95.716;2023-04-25T01:15:45;97820.69;;;8.58;36.11
70458;BME280;57919;56.194;95.716;2023-04-25T01:25:48;97817.78;;;9.03;36.85
70458;BME280;57919;56.194;95.716;2023-04-25T01:35:50;97802.56;;;8.94;37.62
70458;BME280;57919;56.194;95.716;2023-04-25T01:45:55;97803.34;;;8.86;38.73
70458;BME280;57919;56.194;95.716;2023-04-25T01:55:58;97807.06;;;8.85;40.22
70458;BME280;57919;56.194;95.716;2023-04-25T02:06:03;97816.88;;;8.68;40.38
70458;BME280;57919;56.194;95.716;2023-04-25T02:16:08;97814.00;;;8.26;44.02
70458;BME280;57919;56.194;95.716;2023-04-25T02:26:13;97809.84;;;7.96;47.68
70458;BME280;57919;56.194;95.716;2023-04-25T02:36:16;97807.69;;;8.00;50.54
70458;BME280;57919;56.194;95.716;2023-04-25T02:46:18;97807.84;;;7.98;51.95
70458;BME280;57919;56.194;95.716;2023-04-25T02:56:21;97811.22;;;7.65;53.36
70458;BME280;57919;56.194;95.716;2023-04-25T03:06:23;97805.00;;;7.37;54.89
70458;BME280;57919;56.194;95.716;2023-04-25T03:16:27;97816.00;;;7.43;56.28
70458;BME280;57919;56.194;95.716;2023-04-25T03:26:30;97821.00;;;7.38;57.35
70458;BME280;57919;56.194;95.716;2023-04-25T03:36:32;97829.88;;;7.49;58.10
70458;BME280;57919;56.194;95.716;2023-04-25T03:46:34;97826.69;;;7.98;58.35
70458;BME280;57919;56.194;95.716;2023-04-25T03:56:36;97829.34;;;8.69;56.60
70458;BME280;57919;56.194;95.716;2023-04-25T04:06:48;97833.59;;;9.74;57.83
70458;BME280;57919;56.194;95.716;2023-04-25T04:16:57;97849.28;;;10.29;57.22
70458;BME280;57919;56.194;95.716;2023-04-25T04:26:59;97854.34;;;10.32;56.38
70458;BME280;57919;56.194;95.716;2023-04-25T04:37:08;97873.69;;;10.03;57.06
70458;BME280;57919;56.194;95.716;2023-04-25T04:47:11;97886.84;;;9.56;58.58
70458;BME280;57919;56.194;95.716;2023-04-25T04:57:34;97920.06;;;9.22;63.88
70458;BME280;57919;56.194;95.716;2023-04-25T05:07:46;97954.66;;;8.83;68.64
70458;BME280;57919;56.194;95.716;2023-04-25T05:18:17;97957.75;;;8.70;70.43
70458;BME280;57919;56.194;95.716;2023-04-25T05:28:41;97998.66;;;8.84;68.04
70458;BME280;57919;56.194;95.716;2023-04-25T05:39:10;98007.84;;;8.91;64.60
70458;BME280;57919;56.194;95.716;2023-04-25T05:49:48;98044.28;;;9.13;61.61
70458;BME280;57919;56.194;95.716;2023-04-25T06:00:09;98062.84;;;8.98;60.45
70458;BME280;57919;56.194;95.716;2023-04-25T06:10:20;98095.22;;;8.53;61.90
70458;BME280;57919;56.194;95.716;2023-04-25T06:20:22;98142.72;;;8.17;62.24
70458;BME280;57919;56.194;95.716;2023-04-25T06:30:26;98177.63;;;7.99;62.14
70458;BME280;57919;56.194;95.716;2023-04-25T06:40:34;98228.81;;;7.70;59.51
70458;BME280;57919;56.194;95.716;2023-04-25T06:50:36;98269.47;;;6.67;60.46
70458;BME280;57919;56.194;95.716;2023-04-25T07:00:38;98302.22;;;6.31;62.13
70458;BME280;57919;56.194;95.716;2023-04-25T07:10:40;98313.97;;;5.98;61.87
70458;BME280;57919;56.194;95.716;2023-04-25T07:20:43;98333.28;;;5.92;60.14
70458;BME280;57919;56.194;95.716;2023-04-25T07:30:46;98354.78;;;6.12;59.14
70458;BME280;57919;56.194;95.716;2023-04-25T07:40:48;98382.94;;;6.50;58.20
70458;BME280;57919;56.194;95.716;2023-04-25T07:50:51;98407.25;;;6.48;54.69
70458;BME280;57919;56.194;95.716;2023-04-25T08:00:54;98461.09;;;6.15;53.70
70458;BME280;57919;56.194;95.716;2023-04-25T08:11:16;98502.09;;;6.60;51.41
70458;BME280;57919;56.194;95.716;2023-04-25T08:21:18;98515.34;;;6.41;50.73
70458;BME280;57919;56.194;95.716;2023-04-25T08:31:20;98547.94;;;6.36;49.95
70458;BME280;57919;56.194;95.716;2023-04-25T08:41:36;98583.00;;;5.79;50.66
70458;BME280;57919;56.194;95.716;2023-04-25T08:51:45;98614.09;;;5.24;52.18
70458;BME280;57919;56.194;95.716;2023-04-25T09:01:49;98654.50;;;4.49;53.00
70458;BME280;57919;56.194;95.716;2023-04-25T09:11:56;98671.09;;;4.54;53.22
70458;BME280;57919;56.194;95.716;2023-04-25T09:22:02;98698.34;;;4.36;52.80
70458;BME280;57919;56.194;95.716;2023-04-25T09:32:18;98728.97;;;4.57;50.47
70458;BME280;57919;56.194;95.716;2023-04-25T09:42:23;98752.00;;;4.47;49.54
70458;BME280;57919;56.194;95.716;2023-04-25T09:52:26;98771.03;;;4.68;49.29
70458;BME280;57919;56.194;95.716;2023-04-25T10:02:38;98799.88;;;4.26;48.52
70458;BME280;57919;56.194;95.716;2023-04-25T10:12:42;98829.59;;;3.96;49.75
70458;BME280;57919;56.194;95.716;2023-04-25T10:22:46;98856.88;;;3.88;50.25
70458;BME280;57919;56.194;95.716;2023-04-25T10:32:49;98878.13;;;3.50;50.55
70458;BME280;57919;56.194;95.716;2023-04-25T10:42:54;98899.34;;;3.80;49.35
70458;BME280;57919;56.194;95.716;2023-04-25T10:53:14;98908.09;;;3.55;49.91
70458;BME280;57919;56.194;95.716;2023-04-25T11:03:16;98926.94;;;3.40;49.58
70458;BME280;57919;56.194;95.716;2023-04-25T11:13:20;98942.31;;;3.22;49.09
70458;BME280;57919;56.194;95.716;2023-04-25T11:23:22;98961.59;;;3.27;49.50
70458;BME280;57919;56.194;95.716;2023-04-25T11:33:25;98981.63;;;2.91;49.87
70458;BME280;57919;56.194;95.716;2023-04-25T11:43:28;99010.09;;;2.63;50.48
70458;BME280;57919;56.194;95.716;2023-04-25T11:53:30;99040.34;;;2.47;51.87
70458;BME280;57919;56.194;95.716;2023-04-25T12:03:32;99064.94;;;2.22;53.19
70458;BME280;57919;56.194;95.716;2023-04-25T12:13:34;99069.59;;;2.03;53.71
70458;BME280;57919;56.194;95.716;2023-04-25T12:23:38;99089.38;;;1.99;53.42
70458;BME280;57919;56.194;95.716;2023-04-25T12:33:42;99092.88;;;1.84;52.22
70458;BME280;57919;56.194;95.716;2023-04-25T12:43:48;99129.31;;;1.68;52.26
70458;BME280;57919;56.194;95.716;2023-04-25T12:53:51;99142.59;;;1.52;52.42
70458;BME280;57919;56.194;95.716;2023-04-25T13:03:53;99178.44;;;1.46;50.59
70458;BME280;57919;56.194;95.716;2023-04-25T13:13:56;99178.44;;;1.29;49.76
70458;BME280;57919;56.194;95.716;2023-04-25T13:23:58;99218.97;;;1.18;49.77
70458;BME280;57919;56.194;95.716;2023-04-25T13:34:00;99230.00;;;1.11;49.57
70458;BME280;57919;56.194;95.716;2023-04-25T13:44:02;99238.09;;;0.90;49.75
70458;BME280;57919;56.194;95.716;2023-04-25T13:54:04;99241.63;;;0.91;48.07
70458;BME280;57919;56.194;95.716;2023-04-25T14:04:06;99263.16;;;0.68;49.60
70458;BME280;57919;56.194;95.716;2023-04-25T14:14:09;99258.28;;;0.40;48.68
70458;BME280;57919;56.194;95.716;2023-04-25T14:24:11;99270.75;;;0.19;49.31
70458;BME280;57919;56.194;95.716;2023-04-25T14:34:13;99287.00;;;0.13;49.21
70458;BME280;57919;56.194;95.716;2023-04-25T14:44:15;99269.38;;;0.10;49.42
70458;BME280;57919;56.194;95.716;2023-04-25T14:54:17;99276.63;;;0.07;49.32
70458;BME280;57919;56.194;95.716;2023-04-25T15:04:18;99257.19;;;-0.14;50.25
70458;BME280;57919;56.194;95.716;2023-04-25T15:14:20;99269.28;;;-0.27;50.56
70458;BME280;57919;56.194;95.716;2023-04-25T15:24:22;99275.19;;;-0.41;51.74
70458;BME280;57919;56.194;95.716;2023-04-25T15:34:24;99287.06;;;-0.50;52.85
70458;BME280;57919;56.194;95.716;2023-04-25T15:44:27;99284.34;;;-0.48;52.56
70458;BME280;57919;56.194;95.716;2023-04-25T15:54:29;99303.50;;;-0.40;52.41
70458;BME280;57919;56.194;95.716;2023-04-25T16:04:30;99316.31;;;-0.29;52.34
70458;BME280;57919;56.194;95.716;2023-04-25T16:14:36;99316.78;;;-0.20;51.96
70458;BME280;57919;56.194;95.716;2023-04-25T16:24:38;99317.13;;;-0.07;51.50
70458;BME280;57919;56.194;95.716;2023-04-25T16:34:40;99319.78;;;-0.07;51.02
70458;BME280;57919;56.194;95.716;2023-04-25T16:44:41;99332.69;;;0.02;50.55
70458;BME280;57919;56.194;95.716;2023-04-25T16:54:44;99324.69;;;0.02;51.26
70458;BME280;57919;56.194;95.716;2023-04-25T17:04:46;99326.56;;;0.00;50.30
70458;BME280;57919;56.194;95.716;2023-04-25T17:14:48;99336.47;;;-0.04;50.78
70458;BME280;57919;56.194;95.716;2023-04-25T17:24:50;99339.88;;;0.00;50.43
70458;BME280;57919;56.194;95.716;2023-04-25T17:34:52;99331.75;;;0.03;50.40
70458;BME280;57919;56.194;95.716;2023-04-25T17:44:54;99338.06;;;0.01;50.11
70458;BME280;57919;56.194;95.716;2023-04-25T17:54:56;99345.31;;;-0.03;49.86
70458;BME280;57919;56.194;95.716;2023-04-25T18:04:57;99351.63;;;-0.06;49.52
70458;BME280;57919;56.194;95.716;2023-04-25T18:15:00;99363.13;;;-0.05;49.45
70458;BME280;57919;56.194;95.716;2023-04-25T18:25:03;99372.97;;;-0.07;49.18
70458;BME280;57919;56.194;95.716;2023-04-25T18:35:06;99367.38;;;-0.21;50.05
70458;BME280;57919;56.194;95.716;2023-04-25T18:45:10;99362.25;;;-0.26;50.55
70458;BME280;57919;56.194;95.716;2023-04-25T18:55:12;99381.03;;;-0.30;50.08
70458;BME280;57919;56.194;95.716;2023-04-25T19:05:14;99373.31;;;-0.37;50.82
70458;BME280;57919;56.194;95.716;2023-04-25T19:15:16;99365.41;;;-0.38;51.09
70458;BME280;57919;56.194;95.716;2023-04-25T19:25:18;99381.75;;;-0.47;51.99
70458;BME280;57919;56.194;95.716;2023-04-25T19:35:20;99381.06;;;-0.52;51.64
70458;BME280;57919;56.194;95.716;2023-04-25T19:45:22;99384.16;;;-0.63;52.29
70458;BME280;57919;56.194;95.716;2023-04-25T19:55:24;99378.91;;;-0.64;51.56
70458;BME280;57919;56.194;95.716;2023-04-25T20:05:27;99374.81;;;-0.73;52.27
70458;BME280;57919;56.194;95.716;2023-04-25T20:15:28;99378.41;;;-0.74;52.77
70458;BME280;57919;56.194;95.716;2023-04-25T20:25:31;99381.25;;;-0.79;53.19
70458;BME280;57919;56.194;95.716;2023-04-25T20:35:32;99380.75;;;-0.88;53.40
70458;BME280;57919;56.194;95.716;2023-04-25T20:45:34;99387.78;;;-0.87;53.25
70458;BME280;57919;56.194;95.716;2023-04-25T20:55:38;99377.53;;;-0.96;53.46
70458;BME280;57919;56.194;95.716;2023-04-25T21:05:41;99386.47;;;-0.99;53.55
70458;BME280;57919;56.194;95.716;2023-04-25T21:15:43;99385.38;;;-0.93;53.94
70458;BME280;57919;56.194;95.716;2023-04-25T21:25:45;99385.78;;;-1.04;53.78
70458;BME280;57919;56.194;95.716;2023-04-25T21:35:49;99387.75;;;-1.09;53.83
70458;BME280;57919;56.194;95.716;2023-04-25T21:45:51;99378.34;;;-1.18;54.37
70458;BME280;57919;56.194;95.716;2023-04-25T21:55:52;99381.13;;;-1.21;55.06
70458;BME280;57919;56.194;95.716;2023-04-25T22:05:54;99375.75;;;-1.19;54.56
70458;BME280;57919;56.194;95.716;2023-04-25T22:15:56;99364.69;;;-1.31;56.17
70458;BME280;57919;56.194;95.716;2023-04-25T22:25:59;99391.84;;;-1.24;55.36
70458;BME280;57919;56.194;95.716;2023-04-25T22:36:01;99385.22;;;-1.12;55.22
70458;BME280;57919;56.194;95.716;2023-04-25T22:46:03;99386.88;;;-1.10;55.69
70458;BME280;57919;56.194;95.716;2023-04-25T22:56:06;99402.09;;;-0.91;56.02
70458;BME280;57919;56.194;95.716;2023-04-25T23:06:10;99395.28;;;-0.53;55.05
70458;BME280;57919;56.194;95.716;2023-04-25T23:16:13;99405.81;;;-0.30;54.82
70458;BME280;57919;56.194;95.716;2023-04-25T23:26:15;99410.75;;;-0.21;55.03
70458;BME280;57919;56.194;95.716;2023-04-25T23:36:18;99401.22;;;-0.05;55.89
70458;BME280;57919;56.194;95.716;2023-04-25T23:46:21;99407.81;;;0.48;54.67
70458;BME280;57919;56.194;95.716;2023-04-25T23:56:23;99416.75;;;1.23;53.91
